sensor_id;sensor_type;location;lat;lon;timestamp;P1;durP1;ratioP1;P2;durP2;ratioP2
4430;SDS011;2228;48.140;11.488;2023-06-22T00:02:01;9.73;;;4.20;;
4430;SDS011;2228;48.140;11.488;2023-06-22T00:04:28;10.20;;;4.17;;
4430;SDS011;2228;48.140;11.488;2023-06-22T00:06:55;11.77;;;5.20;;
4430;SDS011;2228;48.140;11.488;2023-06-22T00:09:22;10.80;;;3.90;;
4430;SDS011;2228;48.140;11.488;2023-06-22T00:11:50;12.43;;;3.85;;
4430;SDS011;2228;48.140;11.488;2023-06-22T00:14:17;9.07;;;3.83;;
4430;SDS011;2228;48.140;11.488;2023-06-22T00:16:44;11.37;;;4.13;;
4430;SDS011;2228;48.140;11.488;2023-06-22T00:19:13;9.73;;;3.80;;
4430;SDS011;2228;48.140;11.488;2023-06-22T00:21:40;14.85;;;4.30;;
4430;SDS011;2228;48.140;11.488;2023-06-22T00:24:08;8.77;;;4.07;;
4430;SDS011;2228;48.140;11.488;2023-06-22T00:26:35;9.07;;;3.85;;
4430;SDS011;2228;48.140;11.488;2023-06-22T00:29:03;11.23;;;3.90;;
4430;SDS011;2228;48.140;11.488;2023-06-22T00:31:30;6.43;;;4.00;;
4430;SDS011;2228;48.140;11.488;2023-06-22T00:33:57;7.63;;;3.80;;
4430;SDS011;2228;48.140;11.488;2023-06-22T00:36:23;10.30;;;4.23;;
4430;SDS011;2228;48.140;11.488;2023-06-22T00:38:50;9.07;;;4.00;;
4430;SDS011;2228;48.140;11.488;2023-06-22T00:41:17;13.60;;;4.30;;
4430;SDS011;2228;48.140;11.488;2023-06-22T00:43:44;9.90;;;4.10;;
4430;SDS011;2228;48.140;11.488;2023-06-22T00:46:13;12.00;;;4.60;;
4430;SDS011;2228;48.140;11.488;2023-06-22T00:48:40;10.25;;;4.90;;
4430;SDS011;2228;48.140;11.488;2023-06-22T00:51:09;9.10;;;4.10;;
4430;SDS011;2228;48.140;11.488;2023-06-22T00:53:37;8.93;;;3.90;;
4430;SDS011;2228;48.140;11.488;2023-06-22T00:56:04;9.30;;;4.60;;
4430;SDS011;2228;48.140;11.488;2023-06-22T00:58:32;12.18;;;4.10;;
4430;SDS011;2228;48.140;11.488;2023-06-22T01:00:59;10.85;;;5.10;;
4430;SDS011;2228;48.140;11.488;2023-06-22T01:03:28;12.27;;;4.90;;
4430;SDS011;2228;48.140;11.488;2023-06-22T01:05:55;12.52;;;5.30;;
4430;SDS011;2228;48.140;11.488;2023-06-22T01:08:35;11.80;;;4.38;;
4430;SDS011;2228;48.140;11.488;2023-06-22T01:11:12;12.80;;;4.63;;
4430;SDS011;2228;48.140;11.488;2023-06-22T01:13:46;8.80;;;4.38;;
4430;SDS011;2228;48.140;11.488;2023-06-22T01:16:22;10.55;;;4.30;;
4430;SDS011;2228;48.140;11.488;2023-06-22T01:18:55;7.38;;;3.65;;
4430;SDS011;2228;48.140;11.488;2023-06-22T01:21:24;8.93;;;4.68;;
4430;SDS011;2228;48.140;11.488;2023-06-22T01:23:56;12.00;;;4.00;;
4430;SDS011;2228;48.140;11.488;2023-06-22T01:26:36;8.15;;;4.10;;
4430;SDS011;2228;48.140;11.488;2023-06-22T01:29:06;10.80;;;4.25;;
4430;SDS011;2228;48.140;11.488;2023-06-22T01:31:38;9.90;;;4.60;;
4430;SDS011;2228;48.140;11.488;2023-06-22T01:34:07;13.25;;;4.47;;
4430;SDS011;2228;48.140;11.488;2023-06-22T01:36:35;12.07;;;4.45;;
4430;SDS011;2228;48.140;11.488;2023-06-22T01:39:02;15.48;;;4.90;;
4430;SDS011;2228;48.140;11.488;2023-06-22T01:41:33;7.55;;;4.43;;
4430;SDS011;2228;48.140;11.488;2023-06-22T01:44:01;8.65;;;4.40;;
4430;SDS011;2228;48.140;11.488;2023-06-22T01:46:32;13.70;;;4.80;;
4430;SDS011;2228;48.140;11.488;2023-06-22T01:49:00;12.10;;;5.38;;
4430;SDS011;2228;48.140;11.488;2023-06-22T01:51:28;11.38;;;4.90;;
4430;SDS011;2228;48.140;11.488;2023-06-22T01:53:55;9.88;;;4.63;;
4430;SDS011;2228;48.140;11.488;2023-06-22T01:56:22;11.25;;;4.57;;
4430;SDS011;2228;48.140;11.488;2023-06-22T01:58:50;9.57;;;4.20;;
4430;SDS011;2228;48.140;11.488;2023-06-22T02:01:24;9.50;;;4.22;;
4430;SDS011;2228;48.140;11.488;2023-06-22T02:03:59;11.20;;;4.60;;
4430;SDS011;2228;48.140;11.488;2023-06-22T02:06:33;7.97;;;4.50;;
4430;SDS011;2228;48.140;11.488;2023-06-22T02:09:06;8.97;;;4.47;;
4430;SDS011;2228;48.140;11.488;2023-06-22T02:11:36;10.20;;;4.70;;
4430;SDS011;2228;48.140;11.488;2023-06-22T02:14:04;12.02;;;4.68;;
4430;SDS011;2228;48.140;11.488;2023-06-22T02:16:32;13.73;;;6.03;;
4430;SDS011;2228;48.140;11.488;2023-06-22T02:19:02;9.88;;;5.43;;
4430;SDS011;2228;48.140;11.488;2023-06-22T02:21:29;12.10;;;5.60;;
4430;SDS011;2228;48.140;11.488;2023-06-22T02:23:56;11.90;;;5.30;;
4430;SDS011;2228;48.140;11.488;2023-06-22T02:26:23;11.48;;;4.78;;
4430;SDS011;2228;48.140;11.488;2023-06-22T02:28:51;9.60;;;4.70;;
4430;SDS011;2228;48.140;11.488;2023-06-22T02:31:19;11.13;;;5.50;;
4430;SDS011;2228;48.140;11.488;2023-06-22T02:33:46;11.00;;;5.10;;
4430;SDS011;2228;48.140;11.488;2023-06-22T02:36:14;11.85;;;5.10;;
4430;SDS011;2228;48.140;11.488;2023-06-22T02:38:42;8.75;;;4.70;;
4430;SDS011;2228;48.140;11.488;2023-06-22T02:41:13;9.80;;;4.63;;
4430;SDS011;2228;48.140;11.488;2023-06-22T02:43:43;9.65;;;4.90;;
4430;SDS011;2228;48.140;11.488;2023-06-22T02:46:11;11.65;;;5.25;;
4430;SDS011;2228;48.140;11.488;2023-06-22T02:48:39;10.02;;;4.60;;
4430;SDS011;2228;48.140;11.488;2023-06-22T02:51:06;8.07;;;4.40;;
4430;SDS011;2228;48.140;11.488;2023-06-22T02:53:34;14.00;;;5.18;;
4430;SDS011;2228;48.140;11.488;2023-06-22T02:56:02;8.52;;;4.35;;
4430;SDS011;2228;48.140;11.488;2023-06-22T02:58:30;8.35;;;4.82;;
4430;SDS011;2228;48.140;11.488;2023-06-22T03:01:03;10.02;;;5.00;;
4430;SDS011;2228;48.140;11.488;2023-06-22T03:03:30;10.30;;;4.60;;
4430;SDS011;2228;48.140;11.488;2023-06-22T03:05:57;8.57;;;5.05;;
4430;SDS011;2228;48.140;11.488;2023-06-22T03:08:26;12.80;;;5.23;;
4430;SDS011;2228;48.140;11.488;2023-06-22T03:10:55;8.18;;;4.90;;
4430;SDS011;2228;48.140;11.488;2023-06-22T03:13:22;11.15;;;4.97;;
4430;SDS011;2228;48.140;11.488;2023-06-22T03:15:49;7.68;;;4.63;;
4430;SDS011;2228;48.140;11.488;2023-06-22T03:18:17;8.00;;;4.90;;
4430;SDS011;2228;48.140;11.488;2023-06-22T03:20:44;14.63;;;5.85;;
4430;SDS011;2228;48.140;11.488;2023-06-22T03:23:11;11.30;;;4.90;;
4430;SDS011;2228;48.140;11.488;2023-06-22T03:25:38;10.53;;;4.87;;
4430;SDS011;2228;48.140;11.488;2023-06-22T03:28:06;9.27;;;4.15;;
4430;SDS011;2228;48.140;11.488;2023-06-22T03:30:33;10.02;;;5.20;;
4430;SDS011;2228;48.140;11.488;2023-06-22T03:33:00;9.20;;;5.15;;
4430;SDS011;2228;48.140;11.488;2023-06-22T03:35:27;12.00;;;5.35;;
4430;SDS011;2228;48.140;11.488;2023-06-22T03:37:54;12.05;;;5.10;;
4430;SDS011;2228;48.140;11.488;2023-06-22T03:40:21;8.68;;;4.93;;
4430;SDS011;2228;48.140;11.488;2023-06-22T03:42:48;8.83;;;4.83;;
4430;SDS011;2228;48.140;11.488;2023-06-22T03:45:16;12.88;;;5.38;;
4430;SDS011;2228;48.140;11.488;2023-06-22T03:47:43;9.77;;;5.90;;
4430;SDS011;2228;48.140;11.488;2023-06-22T03:50:10;11.45;;;5.63;;
4430;SDS011;2228;48.140;11.488;2023-06-22T03:52:37;14.23;;;5.70;;
4430;SDS011;2228;48.140;11.488;2023-06-22T03:55:04;8.15;;;4.90;;
4430;SDS011;2228;48.140;11.488;2023-06-22T03:57:32;10.30;;;5.28;;
4430;SDS011;2228;48.140;11.488;2023-06-22T03:59:59;8.10;;;5.20;;
4430;SDS011;2228;48.140;11.488;2023-06-22T04:02:29;12.48;;;5.60;;
4430;SDS011;2228;48.140;11.488;2023-06-22T04:04:56;12.20;;;5.90;;
4430;SDS011;2228;48.140;11.488;2023-06-22T04:07:23;9.70;;;5.68;;
4430;SDS011;2228;48.140;11.488;2023-06-22T04:09:50;13.05;;;5.78;;
4430;SDS011;2228;48.140;11.488;2023-06-22T04:12:17;11.10;;;5.90;;
4430;SDS011;2228;48.140;11.488;2023-06-22T04:14:43;10.00;;;5.40;;
4430;SDS011;2228;48.140;11.488;2023-06-22T04:17:10;17.75;;;6.18;;
4430;SDS011;2228;48.140;11.488;2023-06-22T04:19:40;14.45;;;5.80;;
4430;SDS011;2228;48.140;11.488;2023-06-22T04:22:07;11.55;;;6.00;;
4430;SDS011;2228;48.140;11.488;2023-06-22T04:24:35;11.15;;;6.05;;
4430;SDS011;2228;48.140;11.488;2023-06-22T04:27:02;9.27;;;5.97;;
4430;SDS011;2228;48.140;11.488;2023-06-22T04:29:30;15.40;;;6.05;;
4430;SDS011;2228;48.140;11.488;2023-06-22T04:31:57;12.27;;;6.20;;
4430;SDS011;2228;48.140;11.488;2023-06-22T04:34:28;13.73;;;6.13;;
4430;SDS011;2228;48.140;11.488;2023-06-22T04:36:57;12.05;;;6.57;;
4430;SDS011;2228;48.140;11.488;2023-06-22T04:39:24;13.55;;;6.50;;
4430;SDS011;2228;48.140;11.488;2023-06-22T04:41:52;11.52;;;5.93;;
4430;SDS011;2228;48.140;11.488;2023-06-22T04:44:20;14.90;;;7.25;;
4430;SDS011;2228;48.140;11.488;2023-06-22T04:46:50;9.82;;;6.57;;
4430;SDS011;2228;48.140;11.488;2023-06-22T04:49:19;12.30;;;6.53;;
4430;SDS011;2228;48.140;11.488;2023-06-22T04:51:47;11.98;;;6.53;;
4430;SDS011;2228;48.140;11.488;2023-06-22T04:54:18;11.80;;;6.60;;
4430;SDS011;2228;48.140;11.488;2023-06-22T04:56:45;12.30;;;6.75;;
4430;SDS011;2228;48.140;11.488;2023-06-22T04:59:11;11.60;;;6.73;;
4430;SDS011;2228;48.140;11.488;2023-06-22T05:01:40;11.07;;;6.60;;
4430;SDS011;2228;48.140;11.488;2023-06-22T05:04:07;12.82;;;6.60;;
4430;SDS011;2228;48.140;11.488;2023-06-22T05:06:34;13.77;;;6.30;;
4430;SDS011;2228;48.140;11.488;2023-06-22T05:09:01;12.25;;;6.60;;
4430;SDS011;2228;48.140;11.488;2023-06-22T05:11:31;12.93;;;6.53;;
4430;SDS011;2228;48.140;11.488;2023-06-22T05:13:58;11.80;;;6.57;;
4430;SDS011;2228;48.140;11.488;2023-06-22T05:16:27;13.38;;;7.30;;
4430;SDS011;2228;48.140;11.488;2023-06-22T05:18:54;12.55;;;6.32;;
4430;SDS011;2228;48.140;11.488;2023-06-22T05:21:22;13.32;;;7.15;;
4430;SDS011;2228;48.140;11.488;2023-06-22T05:23:49;14.23;;;7.10;;
4430;SDS011;2228;48.140;11.488;2023-06-22T05:26:16;14.23;;;6.80;;
4430;SDS011;2228;48.140;11.488;2023-06-22T05:28:45;11.30;;;6.90;;
4430;SDS011;2228;48.140;11.488;2023-06-22T05:31:13;15.10;;;7.43;;
4430;SDS011;2228;48.140;11.488;2023-06-22T05:33:40;17.27;;;7.30;;
4430;SDS011;2228;48.140;11.488;2023-06-22T05:36:08;13.98;;;6.75;;
4430;SDS011;2228;48.140;11.488;2023-06-22T05:38:35;21.50;;;7.30;;
4430;SDS011;2228;48.140;11.488;2023-06-22T05:41:02;15.52;;;7.10;;
4430;SDS011;2228;48.140;11.488;2023-06-22T05:43:29;16.27;;;7.50;;
4430;SDS011;2228;48.140;11.488;2023-06-22T05:45:58;13.10;;;6.70;;
4430;SDS011;2228;48.140;11.488;2023-06-22T05:48:26;16.13;;;7.35;;
4430;SDS011;2228;48.140;11.488;2023-06-22T05:50:53;14.52;;;6.70;;
4430;SDS011;2228;48.140;11.488;2023-06-22T05:53:20;15.30;;;7.93;;
4430;SDS011;2228;48.140;11.488;2023-06-22T05:55:47;12.68;;;6.97;;
4430;SDS011;2228;48.140;11.488;2023-06-22T05:58:14;11.40;;;7.43;;
4430;SDS011;2228;48.140;11.488;2023-06-22T06:00:41;12.68;;;7.00;;
4430;SDS011;2228;48.140;11.488;2023-06-22T06:03:10;12.60;;;7.40;;
4430;SDS011;2228;48.140;11.488;2023-06-22T06:05:37;14.48;;;7.25;;
4430;SDS011;2228;48.140;11.488;2023-06-22T06:08:05;17.45;;;7.50;;
4430;SDS011;2228;48.140;11.488;2023-06-22T06:10:32;17.65;;;7.30;;
4430;SDS011;2228;48.140;11.488;2023-06-22T06:13:02;15.38;;;6.93;;
4430;SDS011;2228;48.140;11.488;2023-06-22T06:15:29;14.60;;;6.93;;
4430;SDS011;2228;48.140;11.488;2023-06-22T06:17:56;20.60;;;7.43;;
4430;SDS011;2228;48.140;11.488;2023-06-22T06:20:25;18.37;;;7.00;;
4430;SDS011;2228;48.140;11.488;2023-06-22T06:22:53;14.05;;;6.50;;
4430;SDS011;2228;48.140;11.488;2023-06-22T06:25:20;13.25;;;7.50;;
4430;SDS011;2228;48.140;11.488;2023-06-22T06:27:47;16.50;;;7.00;;
4430;SDS011;2228;48.140;11.488;2023-06-22T06:30:15;16.83;;;7.30;;
4430;SDS011;2228;48.140;11.488;2023-06-22T06:32:44;13.50;;;7.63;;
4430;SDS011;2228;48.140;11.488;2023-06-22T06:35:12;14.75;;;7.47;;
4430;SDS011;2228;48.140;11.488;2023-06-22T06:37:41;15.88;;;8.00;;
4430;SDS011;2228;48.140;11.488;2023-06-22T06:40:10;14.60;;;7.13;;
4430;SDS011;2228;48.140;11.488;2023-06-22T06:42:38;13.18;;;7.25;;
4430;SDS011;2228;48.140;11.488;2023-06-22T06:45:07;14.30;;;7.10;;
4430;SDS011;2228;48.140;11.488;2023-06-22T06:47:34;16.20;;;7.40;;
4430;SDS011;2228;48.140;11.488;2023-06-22T06:50:01;13.65;;;7.03;;
4430;SDS011;2228;48.140;11.488;2023-06-22T06:52:29;12.73;;;6.80;;
4430;SDS011;2228;48.140;11.488;2023-06-22T06:54:57;12.80;;;7.18;;
4430;SDS011;2228;48.140;11.488;2023-06-22T06:57:24;13.15;;;7.13;;
4430;SDS011;2228;48.140;11.488;2023-06-22T06:59:54;18.60;;;7.65;;
4430;SDS011;2228;48.140;11.488;2023-06-22T07:02:21;18.17;;;6.72;;
4430;SDS011;2228;48.140;11.488;2023-06-22T07:04:48;13.32;;;6.90;;
4430;SDS011;2228;48.140;11.488;2023-06-22T07:07:16;13.35;;;6.40;;
4430;SDS011;2228;48.140;11.488;2023-06-22T07:09:43;12.30;;;6.82;;
4430;SDS011;2228;48.140;11.488;2023-06-22T07:12:11;14.00;;;6.78;;
4430;SDS011;2228;48.140;11.488;2023-06-22T07:14:38;12.82;;;5.50;;
4430;SDS011;2228;48.140;11.488;2023-06-22T07:17:05;13.43;;;6.63;;
4430;SDS011;2228;48.140;11.488;2023-06-22T07:19:32;12.70;;;5.70;;
4430;SDS011;2228;48.140;11.488;2023-06-22T07:21:59;13.45;;;7.10;;
4430;SDS011;2228;48.140;11.488;2023-06-22T07:24:26;17.37;;;7.00;;
4430;SDS011;2228;48.140;11.488;2023-06-22T07:26:53;14.55;;;6.30;;
4430;SDS011;2228;48.140;11.488;2023-06-22T07:29:21;11.82;;;7.00;;
4430;SDS011;2228;48.140;11.488;2023-06-22T07:31:49;16.70;;;6.75;;
4430;SDS011;2228;48.140;11.488;2023-06-22T07:34:17;12.45;;;7.30;;
4430;SDS011;2228;48.140;11.488;2023-06-22T07:36:44;12.07;;;6.43;;
4430;SDS011;2228;48.140;11.488;2023-06-22T07:39:11;16.08;;;6.75;;
4430;SDS011;2228;48.140;11.488;2023-06-22T07:41:38;17.23;;;6.72;;
4430;SDS011;2228;48.140;11.488;2023-06-22T07:44:05;17.42;;;6.72;;
4430;SDS011;2228;48.140;11.488;2023-06-22T07:46:34;15.85;;;6.72;;
4430;SDS011;2228;48.140;11.488;2023-06-22T07:49:01;13.27;;;6.60;;
4430;SDS011;2228;48.140;11.488;2023-06-22T07:51:28;13.38;;;6.75;;
4430;SDS011;2228;48.140;11.488;2023-06-22T07:53:55;13.13;;;6.70;;
4430;SDS011;2228;48.140;11.488;2023-06-22T07:56:22;12.40;;;6.20;;
4430;SDS011;2228;48.140;11.488;2023-06-22T07:58:49;13.43;;;6.10;;
4430;SDS011;2228;48.140;11.488;2023-06-22T08:01:16;12.40;;;6.15;;
4430;SDS011;2228;48.140;11.488;2023-06-22T08:03:47;14.10;;;7.00;;
4430;SDS011;2228;48.140;11.488;2023-06-22T08:06:14;14.60;;;7.05;;
4430;SDS011;2228;48.140;11.488;2023-06-22T08:08:41;12.45;;;6.45;;
4430;SDS011;2228;48.140;11.488;2023-06-22T08:11:08;10.30;;;5.85;;
4430;SDS011;2228;48.140;11.488;2023-06-22T08:13:35;12.47;;;5.70;;
4430;SDS011;2228;48.140;11.488;2023-06-22T08:16:02;10.60;;;5.95;;
4430;SDS011;2228;48.140;11.488;2023-06-22T08:18:29;9.98;;;5.00;;
4430;SDS011;2228;48.140;11.488;2023-06-22T08:20:58;8.60;;;5.65;;
4430;SDS011;2228;48.140;11.488;2023-06-22T08:23:25;17.48;;;5.93;;
4430;SDS011;2228;48.140;11.488;2023-06-22T08:25:51;12.75;;;6.65;;
4430;SDS011;2228;48.140;11.488;2023-06-22T08:28:18;12.40;;;6.05;;
4430;SDS011;2228;48.140;11.488;2023-06-22T08:30:45;9.53;;;5.60;;
4430;SDS011;2228;48.140;11.488;2023-06-22T08:33:12;11.07;;;5.75;;
4430;SDS011;2228;48.140;11.488;2023-06-22T08:35:39;14.55;;;6.65;;
4430;SDS011;2228;48.140;11.488;2023-06-22T08:38:07;15.93;;;6.68;;
4430;SDS011;2228;48.140;11.488;2023-06-22T08:40:34;20.42;;;6.13;;
4430;SDS011;2228;48.140;11.488;2023-06-22T08:43:01;17.83;;;6.20;;
4430;SDS011;2228;48.140;11.488;2023-06-22T08:45:27;12.43;;;5.78;;
4430;SDS011;2228;48.140;11.488;2023-06-22T08:47:54;13.20;;;5.90;;
4430;SDS011;2228;48.140;11.488;2023-06-22T08:50:21;13.05;;;6.35;;
4430;SDS011;2228;48.140;11.488;2023-06-22T08:52:48;14.23;;;6.20;;
4430;SDS011;2228;48.140;11.488;2023-06-22T08:55:16;13.73;;;5.95;;
4430;SDS011;2228;48.140;11.488;2023-06-22T08:57:43;12.25;;;6.05;;
4430;SDS011;2228;48.140;11.488;2023-06-22T09:00:10;10.68;;;5.78;;
4430;SDS011;2228;48.140;11.488;2023-06-22T09:02:47;12.52;;;5.63;;
4430;SDS011;2228;48.140;11.488;2023-06-22T09:05:14;11.40;;;5.40;;
4430;SDS011;2228;48.140;11.488;2023-06-22T09:07:41;12.55;;;5.85;;
4430;SDS011;2228;48.140;11.488;2023-06-22T09:10:08;12.73;;;5.95;;
4430;SDS011;2228;48.140;11.488;2023-06-22T09:12:37;13.45;;;6.28;;
4430;SDS011;2228;48.140;11.488;2023-06-22T09:15:05;10.95;;;5.50;;
4430;SDS011;2228;48.140;11.488;2023-06-22T09:17:33;11.82;;;6.25;;
4430;SDS011;2228;48.140;11.488;2023-06-22T09:20:00;13.93;;;5.50;;
4430;SDS011;2228;48.140;11.488;2023-06-22T09:22:30;12.50;;;5.32;;
4430;SDS011;2228;48.140;11.488;2023-06-22T09:24:58;16.90;;;6.10;;
4430;SDS011;2228;48.140;11.488;2023-06-22T09:27:26;13.32;;;5.45;;
4430;SDS011;2228;48.140;11.488;2023-06-22T09:29:54;11.63;;;5.50;;
4430;SDS011;2228;48.140;11.488;2023-06-22T09:32:23;11.82;;;6.65;;
4430;SDS011;2228;48.140;11.488;2023-06-22T09:34:50;11.82;;;5.53;;
4430;SDS011;2228;48.140;11.488;2023-06-22T09:37:17;13.20;;;5.03;;
4430;SDS011;2228;48.140;11.488;2023-06-22T09:39:44;13.70;;;5.47;;
4430;SDS011;2228;48.140;11.488;2023-06-22T09:42:11;11.32;;;5.32;;
4430;SDS011;2228;48.140;11.488;2023-06-22T09:44:38;10.40;;;5.00;;
4430;SDS011;2228;48.140;11.488;2023-06-22T09:47:07;11.63;;;5.78;;
4430;SDS011;2228;48.140;11.488;2023-06-22T09:49:34;10.50;;;5.73;;
4430;SDS011;2228;48.140;11.488;2023-06-22T09:52:01;14.10;;;5.83;;
4430;SDS011;2228;48.140;11.488;2023-06-22T09:54:27;12.27;;;5.50;;
4430;SDS011;2228;48.140;11.488;2023-06-22T09:56:54;10.57;;;5.47;;
4430;SDS011;2228;48.140;11.488;2023-06-22T09:59:21;15.63;;;5.53;;
4430;SDS011;2228;48.140;11.488;2023-06-22T10:01:48;9.47;;;5.20;;
4430;SDS011;2228;48.140;11.488;2023-06-22T10:04:17;14.65;;;5.85;;
4430;SDS011;2228;48.140;11.488;2023-06-22T10:06:43;11.05;;;5.40;;
4430;SDS011;2228;48.140;11.488;2023-06-22T10:09:10;11.90;;;5.57;;
4430;SDS011;2228;48.140;11.488;2023-06-22T10:11:37;10.80;;;4.90;;
4430;SDS011;2228;48.140;11.488;2023-06-22T10:14:04;14.57;;;5.20;;
4430;SDS011;2228;48.140;11.488;2023-06-22T10:16:31;13.77;;;5.13;;
4430;SDS011;2228;48.140;11.488;2023-06-22T10:19:00;9.10;;;4.80;;
4430;SDS011;2228;48.140;11.488;2023-06-22T10:21:29;8.80;;;5.57;;
4430;SDS011;2228;48.140;11.488;2023-06-22T10:23:56;12.13;;;5.50;;
4430;SDS011;2228;48.140;11.488;2023-06-22T10:26:24;14.48;;;5.50;;
4430;SDS011;2228;48.140;11.488;2023-06-22T10:28:54;11.87;;;5.10;;
4430;SDS011;2228;48.140;11.488;2023-06-22T10:31:21;11.57;;;5.00;;
4430;SDS011;2228;48.140;11.488;2023-06-22T10:33:48;11.20;;;5.60;;
4430;SDS011;2228;48.140;11.488;2023-06-22T10:36:15;11.52;;;5.05;;
4430;SDS011;2228;48.140;11.488;2023-06-22T10:38:43;13.05;;;4.65;;
4430;SDS011;2228;48.140;11.488;2023-06-22T10:41:10;12.70;;;5.13;;
4430;SDS011;2228;48.140;11.488;2023-06-22T10:43:37;8.50;;;5.23;;
4430;SDS011;2228;48.140;11.488;2023-06-22T10:46:04;10.43;;;5.27;;
4430;SDS011;2228;48.140;11.488;2023-06-22T10:48:31;13.90;;;4.63;;
4430;SDS011;2228;48.140;11.488;2023-06-22T10:50:58;14.50;;;5.00;;
4430;SDS011;2228;48.140;11.488;2023-06-22T10:53:24;10.80;;;5.70;;
4430;SDS011;2228;48.140;11.488;2023-06-22T10:55:53;11.40;;;4.50;;
4430;SDS011;2228;48.140;11.488;2023-06-22T10:58:19;11.88;;;4.80;;
4430;SDS011;2228;48.140;11.488;2023-06-22T11:00:46;9.97;;;4.80;;
4430;SDS011;2228;48.140;11.488;2023-06-22T11:03:13;11.80;;;5.10;;
4430;SDS011;2228;48.140;11.488;2023-06-22T11:05:40;15.52;;;5.82;;
4430;SDS011;2228;48.140;11.488;2023-06-22T11:08:07;12.10;;;5.90;;
4430;SDS011;2228;48.140;11.488;2023-06-22T11:10:34;13.37;;;5.00;;
4430;SDS011;2228;48.140;11.488;2023-06-22T11:13:02;9.80;;;5.50;;
4430;SDS011;2228;48.140;11.488;2023-06-22T11:15:30;10.25;;;5.30;;
4430;SDS011;2228;48.140;11.488;2023-06-22T11:17:57;12.07;;;5.28;;
4430;SDS011;2228;48.140;11.488;2023-06-22T11:20:24;16.15;;;6.00;;
4430;SDS011;2228;48.140;11.488;2023-06-22T11:22:51;11.63;;;5.50;;
4430;SDS011;2228;48.140;11.488;2023-06-22T11:25:18;13.73;;;5.20;;
4430;SDS011;2228;48.140;11.488;2023-06-22T11:27:45;14.98;;;5.60;;
4430;SDS011;2228;48.140;11.488;2023-06-22T11:30:13;9.07;;;5.07;;
4430;SDS011;2228;48.140;11.488;2023-06-22T11:32:40;10.63;;;4.90;;
4430;SDS011;2228;48.140;11.488;2023-06-22T11:35:07;9.15;;;5.00;;
4430;SDS011;2228;48.140;11.488;2023-06-22T11:37:34;14.63;;;5.55;;
4430;SDS011;2228;48.140;11.488;2023-06-22T11:40:01;13.98;;;5.22;;
4430;SDS011;2228;48.140;11.488;2023-06-22T11:42:30;11.35;;;4.78;;
4430;SDS011;2228;48.140;11.488;2023-06-22T11:44:57;11.38;;;4.70;;
4430;SDS011;2228;48.140;11.488;2023-06-22T11:47:25;9.25;;;4.07;;
4430;SDS011;2228;48.140;11.488;2023-06-22T11:49:52;14.38;;;5.50;;
4430;SDS011;2228;48.140;11.488;2023-06-22T11:52:19;16.95;;;5.40;;
4430;SDS011;2228;48.140;11.488;2023-06-22T11:54:46;6.15;;;4.32;;
4430;SDS011;2228;48.140;11.488;2023-06-22T11:57:12;8.43;;;4.70;;
4430;SDS011;2228;48.140;11.488;2023-06-22T11:59:39;10.77;;;4.70;;
4430;SDS011;2228;48.140;11.488;2023-06-22T12:02:06;12.90;;;5.30;;
4430;SDS011;2228;48.140;11.488;2023-06-22T12:04:36;13.95;;;5.30;;
4430;SDS011;2228;48.140;11.488;2023-06-22T12:07:03;8.98;;;4.60;;
4430;SDS011;2228;48.140;11.488;2023-06-22T12:09:30;10.73;;;4.40;;
4430;SDS011;2228;48.140;11.488;2023-06-22T12:11:56;11.43;;;4.90;;
4430;SDS011;2228;48.140;11.488;2023-06-22T12:14:23;11.52;;;4.90;;
4430;SDS011;2228;48.140;11.488;2023-06-22T12:16:50;9.45;;;5.13;;
4430;SDS011;2228;48.140;11.488;2023-06-22T12:19:17;11.40;;;4.70;;
4430;SDS011;2228;48.140;11.488;2023-06-22T12:21:45;10.55;;;4.80;;
4430;SDS011;2228;48.140;11.488;2023-06-22T12:24:12;8.18;;;4.88;;
4430;SDS011;2228;48.140;11.488;2023-06-22T12:26:39;11.85;;;4.60;;
4430;SDS011;2228;48.140;11.488;2023-06-22T12:29:06;14.60;;;4.80;;
4430;SDS011;2228;48.140;11.488;2023-06-22T12:31:32;11.43;;;5.23;;
4430;SDS011;2228;48.140;11.488;2023-06-22T12:33:59;12.83;;;5.40;;
4430;SDS011;2228;48.140;11.488;2023-06-22T12:36:26;12.30;;;4.70;;
4430;SDS011;2228;48.140;11.488;2023-06-22T12:38:54;11.90;;;4.82;;
4430;SDS011;2228;48.140;11.488;2023-06-22T12:41:21;11.70;;;5.27;;
4430;SDS011;2228;48.140;11.488;2023-06-22T12:43:48;12.07;;;4.93;;
4430;SDS011;2228;48.140;11.488;2023-06-22T12:46:15;12.88;;;5.32;;
4430;SDS011;2228;48.140;11.488;2023-06-22T12:48:42;10.07;;;5.22;;
4430;SDS011;2228;48.140;11.488;2023-06-22T12:51:09;9.95;;;5.10;;
4430;SDS011;2228;48.140;11.488;2023-06-22T12:53:36;12.37;;;5.40;;
4430;SDS011;2228;48.140;11.488;2023-06-22T12:56:04;12.40;;;4.97;;
4430;SDS011;2228;48.140;11.488;2023-06-22T12:58:31;8.88;;;5.03;;
4430;SDS011;2228;48.140;11.488;2023-06-22T13:00:58;10.68;;;5.10;;
4430;SDS011;2228;48.140;11.488;2023-06-22T13:03:27;10.97;;;5.33;;
4430;SDS011;2228;48.140;11.488;2023-06-22T13:05:53;14.00;;;5.20;;
4430;SDS011;2228;48.140;11.488;2023-06-22T13:08:20;9.70;;;4.80;;
4430;SDS011;2228;48.140;11.488;2023-06-22T13:10:47;10.45;;;5.20;;
4430;SDS011;2228;48.140;11.488;2023-06-22T13:13:16;11.30;;;5.20;;
4430;SDS011;2228;48.140;11.488;2023-06-22T13:15:42;9.90;;;4.55;;
4430;SDS011;2228;48.140;11.488;2023-06-22T13:18:09;10.20;;;5.18;;
4430;SDS011;2228;48.140;11.488;2023-06-22T13:20:36;12.38;;;4.38;;
4430;SDS011;2228;48.140;11.488;2023-06-22T13:23:04;11.40;;;4.75;;
4430;SDS011;2228;48.140;11.488;2023-06-22T13:25:31;8.73;;;4.68;;
4430;SDS011;2228;48.140;11.488;2023-06-22T13:27:58;9.15;;;4.38;;
4430;SDS011;2228;48.140;11.488;2023-06-22T13:30:26;13.80;;;5.03;;
4430;SDS011;2228;48.140;11.488;2023-06-22T13:32:56;10.18;;;4.63;;
4430;SDS011;2228;48.140;11.488;2023-06-22T13:35:23;8.98;;;4.10;;
4430;SDS011;2228;48.140;11.488;2023-06-22T13:37:50;12.85;;;5.97;;
4430;SDS011;2228;48.140;11.488;2023-06-22T13:40:17;17.83;;;5.40;;
4430;SDS011;2228;48.140;11.488;2023-06-22T13:42:44;15.30;;;5.40;;
4430;SDS011;2228;48.140;11.488;2023-06-22T13:45:11;12.05;;;5.68;;
4430;SDS011;2228;48.140;11.488;2023-06-22T13:47:39;11.77;;;5.32;;
4430;SDS011;2228;48.140;11.488;2023-06-22T13:50:06;11.63;;;5.50;;
4430;SDS011;2228;48.140;11.488;2023-06-22T13:52:34;10.95;;;4.70;;
4430;SDS011;2228;48.140;11.488;2023-06-22T13:55:01;12.13;;;5.07;;
4430;SDS011;2228;48.140;11.488;2023-06-22T13:57:29;13.02;;;5.25;;
4430;SDS011;2228;48.140;11.488;2023-06-22T13:59:56;17.65;;;5.00;;
4430;SDS011;2228;48.140;11.488;2023-06-22T14:02:23;12.70;;;4.93;;
4430;SDS011;2228;48.140;11.488;2023-06-22T14:04:53;9.07;;;4.45;;
4430;SDS011;2228;48.140;11.488;2023-06-22T14:07:20;11.93;;;4.60;;
4430;SDS011;2228;48.140;11.488;2023-06-22T14:09:49;8.33;;;4.40;;
4430;SDS011;2228;48.140;11.488;2023-06-22T14:12:16;8.23;;;4.13;;
4430;SDS011;2228;48.140;11.488;2023-06-22T14:14:44;10.05;;;4.45;;
4430;SDS011;2228;48.140;11.488;2023-06-22T14:17:11;7.27;;;4.23;;
4430;SDS011;2228;48.140;11.488;2023-06-22T14:19:38;10.20;;;4.72;;
4430;SDS011;2228;48.140;11.488;2023-06-22T14:22:06;12.02;;;4.68;;
4430;SDS011;2228;48.140;11.488;2023-06-22T14:24:33;10.02;;;4.82;;
4430;SDS011;2228;48.140;11.488;2023-06-22T14:27:00;11.80;;;4.55;;
4430;SDS011;2228;48.140;11.488;2023-06-22T14:29:28;9.82;;;4.68;;
4430;SDS011;2228;48.140;11.488;2023-06-22T14:31:55;9.15;;;4.47;;
4430;SDS011;2228;48.140;11.488;2023-06-22T14:34:22;10.75;;;4.35;;
4430;SDS011;2228;48.140;11.488;2023-06-22T14:36:49;11.45;;;4.60;;
4430;SDS011;2228;48.140;11.488;2023-06-22T14:39:17;10.88;;;4.50;;
4430;SDS011;2228;48.140;11.488;2023-06-22T14:41:45;13.45;;;4.30;;
4430;SDS011;2228;48.140;11.488;2023-06-22T14:44:12;9.40;;;4.13;;
4430;SDS011;2228;48.140;11.488;2023-06-22T14:46:39;7.57;;;3.50;;
4430;SDS011;2228;48.140;11.488;2023-06-22T14:49:06;12.02;;;4.30;;
4430;SDS011;2228;48.140;11.488;2023-06-22T14:51:33;11.87;;;4.40;;
4430;SDS011;2228;48.140;11.488;2023-06-22T14:54:00;12.23;;;4.57;;